Time;durP1;ratioP1;P1;durP2;ratioP2;P2;SDS_P1;SDS_P2;PMS_P1;PMS_P2;Temp;Humidity;BMP_temperature;BMP_pressure;BME280_temperature;BME280_humidity;BME280_pressure;Samples;Min_cycle;Max_cycle;Signal;HPM_P1;HPM_P2
2023/01/06 00:02:02;;;;;;;;;;;;;;;-17.89;64.63;99261.63;4926481;29;19977;-69
2023/01/06 00:04:28;;;;;;;;;;;;;;;-17.90;64.65;99258.19;4940297;28;19966;-69
2023/01/06 00:06:53;;;;;;;;;;;;;;;-17.86;64.40;99266.66;4927094;29;19935;-69
2023/01/06 00:09:19;;;;;;;;;;;;;;;-17.89;64.40;99279.91;4931518;28;20015;-69
2023/01/06 00:11:46;;;;;;;;;;;;;;;-17.96;64.78;99274.25;4944988;28;19932;-69
2023/01/06 00:14:12;;;;;;;;;;;;;;;-18.04;64.76;99282.66;4942140;28;20429;-69
2023/01/06 00:16:37;;;;;;;;;;;;;;;-18.19;65.10;99283.69;4935018;29;19969;-64
2023/01/06 00:19:03;;;;;;;;;;;;;;;-18.15;64.92;99283.38;4937149;28;20049;-63
2023/01/06 00:21:29;;;;;;;;;;;;;;;-18.16;65.15;99273.88;4946564;28;19930;-69
2023/01/06 00:23:55;;;;;;;;;;;;;;;-18.19;65.10;99281.09;4945574;28;20024;-69
2023/01/06 00:26:21;;;;;;;;;;;;;;;-18.25;64.71;99277.13;4944141;28;20843;-69
2023/01/06 00:28:51;;;;;;;;;;;;;;;-18.31;64.96;99287.97;4943450;28;19961;-69
2023/01/06 00:31:16;;;;;;;;;;;;;;;-18.27;64.97;99299.88;4946821;28;19930;-69
2023/01/06 00:33:42;;;;;;;;;;;;;;;-18.23;64.93;99298.75;4946000;28;20283;-69
2023/01/06 00:36:09;;;;;;;;;;;;;;;-18.25;64.25;99303.25;4909785;29;19931;-69
2023/01/06 00:38:35;;;;;;;;;;;;;;;-18.29;64.07;99318.25;4925668;29;19930;-69
2023/01/06 00:41:02;;;;;;;;;;;;;;;-18.40;64.07;99320.75;4929966;29;20029;-69
2023/01/06 00:43:27;;;;;;;;;;;;;;;-18.58;65.01;99320.16;4926750;29;19931;-69
2023/01/06 00:45:55;;;;;;;;;;;;;;;-18.51;64.48;99329.28;4946187;28;20402;-64
2023/01/06 00:48:21;;;;;;;;;;;;;;;-18.50;64.60;99328.34;4928707;29;19937;-64
2023/01/06 00:50:46;;;;;;;;;;;;;;;-18.66;64.45;99305.00;4930680;28;20378;-69
2023/01/06 00:53:12;;;;;;;;;;;;;;;-18.51;64.40;99339.72;4923171;29;19978;-69
2023/01/06 00:55:38;;;;;;;;;;;;;;;-18.52;64.06;99330.22;4925225;29;19931;-69
2023/01/06 00:58:03;;;;;;;;;;;;;;;-18.58;63.76;99334.06;4925458;29;20202;-69
2023/01/06 01:00:29;;;;;;;;;;;;;;;-18.62;64.75;99337.81;4924332;29;19937;-69
2023/01/06 01:02:56;;;;;;;;;;;;;;;-18.66;64.02;99336.31;4927352;29;19931;-69
2023/01/06 01:05:23;;;;;;;;;;;;;;;-18.75;64.65;99340.34;4929319;28;19983;-69
2023/01/06 01:07:49;;;;;;;;;;;;;;;-18.78;64.51;99344.94;4946932;28;20858;-69
2023/01/06 01:10:15;;;;;;;;;;;;;;;-18.78;64.52;99355.38;4928134;29;19937;-69
2023/01/06 01:12:40;;;;;;;;;;;;;;;-18.80;64.40;99363.28;4942327;28;19930;-69
2023/01/06 01:15:07;;;;;;;;;;;;;;;-18.92;64.58;99361.47;4944511;28;19930;-69
2023/01/06 01:17:34;;;;;;;;;;;;;;;-19.05;64.22;99374.47;4945353;28;20233;-69
2023/01/06 01:20:01;;;;;;;;;;;;;;;-19.26;64.39;99369.66;4934147;29;20877;-69
2023/01/06 01:22:28;;;;;;;;;;;;;;;-19.19;64.93;99370.13;4927697;28;20001;-69
2023/01/06 01:24:54;;;;;;;;;;;;;;;-19.13;64.21;99382.78;4925927;29;20268;-69
2023/01/06 01:27:19;;;;;;;;;;;;;;;-19.13;64.32;99385.38;4925779;29;20005;-69
2023/01/06 01:29:45;;;;;;;;;;;;;;;-19.11;64.11;99399.16;4936606;28;19985;-68
2023/01/06 01:32:11;;;;;;;;;;;;;;;-19.26;64.23;99398.34;4947188;28;20363;-68
2023/01/06 01:34:36;;;;;;;;;;;;;;;-19.21;64.01;99398.03;4933024;28;19934;-69
2023/01/06 01:37:03;;;;;;;;;;;;;;;-19.29;63.94;99404.56;4926233;29;20480;-68
2023/01/06 01:39:29;;;;;;;;;;;;;;;-19.30;64.26;99408.09;4924929;29;19931;-68
2023/01/06 01:41:56;;;;;;;;;;;;;;;-19.29;64.63;99407.16;4927150;29;20037;-69
2023/01/06 01:44:52;;;;;;;;;;;;;;;-19.29;63.31;99420.19;4925036;29;20005;-69
2023/01/06 01:47:20;;;;;;;;;;;;;;;-19.29;63.51;99414.13;4885142;29;19940;-69
2023/01/06 01:49:48;;;;;;;;;;;;;;;-19.34;63.21;99419.66;4888680;29;19969;-68
2023/01/06 01:52:16;;;;;;;;;;;;;;;-19.38;63.46;99427.75;4886615;29;20399;-69
2023/01/06 01:54:42;;;;;;;;;;;;;;;-19.42;63.42;99429.69;4887410;29;20038;-69
2023/01/06 01:57:09;;;;;;;;;;;;;;;-19.43;63.29;99430.63;4886994;29;19935;-69
2023/01/06 01:59:36;;;;;;;;;;;;;;;-19.45;63.65;99429.88;4869728;29;19950;-68
2023/01/06 02:02:02;;;;;;;;;;;;;;;-19.53;63.18;99438.16;4880299;29;19959;-68
2023/01/06 02:04:32;;;;;;;;;;;;;;;-19.56;63.31;99443.53;4904145;29;19942;-68
2023/01/06 02:07:00;;;;;;;;;;;;;;;-19.64;63.26;99450.97;4888717;29;19969;-68
2023/01/06 02:09:31;;;;;;;;;;;;;;;-19.70;63.31;99447.81;4892477;29;20079;-70
2023/01/06 02:11:57;;;;;;;;;;;;;;;-19.71;62.77;99442.66;4893362;29;19931;-68
2023/01/06 02:14:25;;;;;;;;;;;;;;;-19.76;63.09;99448.13;4907950;29;20423;-68
2023/01/06 02:16:58;;;;;;;;;;;;;;;-19.79;62.93;99455.31;4905993;29;19966;-68
2023/01/06 02:19:40;;;;;;;;;;;;;;;-19.92;62.85;99450.00;4891528;29;19939;-69
2023/01/06 02:22:15;;;;;;;;;;;;;;;-19.92;63.38;99452.59;4920866;29;20333;-69
2023/01/06 02:25:00;;;;;;;;;;;;;;;-19.90;63.10;99453.31;4938052;28;19930;-68
2023/01/06 02:27:40;;;;;;;;;;;;;;;-19.95;63.49;99455.38;4924235;28;19962;-68
2023/01/06 02:30:22;;;;;;;;;;;;;;;-20.15;63.72;99466.00;4926939;29;19950;-68
2023/01/06 02:32:55;;;;;;;;;;;;;;;-20.30;64.12;99466.88;4944973;28;19930;-69
2023/01/06 02:35:31;;;;;;;;;;;;;;;-20.22;64.06;99464.69;4946871;28;20310;-68
2023/01/06 02:38:02;;;;;;;;;;;;;;;-20.10;63.75;99476.16;4947376;28;19957;-68
2023/01/06 02:40:38;;;;;;;;;;;;;;;-20.19;63.40;99482.72;4947327;28;20420;-69
2023/01/06 02:43:10;;;;;;;;;;;;;;;-20.25;63.87;99486.50;4930058;28;19974;-66
2023/01/06 02:45:43;;;;;;;;;;;;;;;-20.25;63.49;99493.47;4945788;28;20017;-69
2023/01/06 02:48:13;;;;;;;;;;;;;;;-20.27;63.87;99493.56;4917654;29;19962;-68
2023/01/06 02:50:43;;;;;;;;;;;;;;;-20.14;64.01;99501.50;4929616;28;20371;-68
2023/01/06 02:53:15;;;;;;;;;;;;;;;-20.07;63.09;99499.41;4926860;29;20298;-69
2023/01/06 02:55:45;;;;;;;;;;;;;;;-20.12;63.28;99504.03;4937810;28;20007;-68
2023/01/06 02:58:14;;;;;;;;;;;;;;;-20.21;62.88;99510.59;4914658;29;20145;-68
2023/01/06 03:00:42;;;;;;;;;;;;;;;-20.33;63.42;99506.06;4928675;29;20332;-68
2023/01/06 03:03:09;;;;;;;;;;;;;;;-20.37;63.11;99514.97;4945084;28;19931;-68
2023/01/06 03:05:39;;;;;;;;;;;;;;;-20.46;63.18;99518.91;4945029;28;20036;-69
2023/01/06 03:08:08;;;;;;;;;;;;;;;-20.36;63.54;99521.84;4944147;28;19957;-68
2023/01/06 03:10:35;;;;;;;;;;;;;;;-20.34;63.47;99527.81;4944808;28;20033;-68
2023/01/06 03:13:04;;;;;;;;;;;;;;;-20.41;63.31;99525.56;4945135;28;20397;-68
2023/01/06 03:15:30;;;;;;;;;;;;;;;-20.45;63.49;99529.22;4932295;28;19981;-67
2023/01/06 03:17:56;;;;;;;;;;;;;;;-20.44;63.66;99530.94;4948161;28;19966;-68
2023/01/06 03:20:22;;;;;;;;;;;;;;;-20.44;64.33;99540.47;4933132;28;19934;-68
2023/01/06 03:22:49;;;;;;;;;;;;;;;-20.39;63.73;99546.25;4928690;29;19937;-68
2023/01/06 03:25:15;;;;;;;;;;;;;;;-20.46;64.04;99542.31;4952506;28;20414;-68
2023/01/06 03:27:42;;;;;;;;;;;;;;;-20.44;64.05;99545.69;4962123;28;19935;-66
2023/01/06 03:30:10;;;;;;;;;;;;;;;-20.45;63.76;99539.63;4939274;28;19930;-68
2023/01/06 03:32:42;;;;;;;;;;;;;;;-20.40;63.88;99548.03;4944111;28;19930;-68
2023/01/06 03:35:16;;;;;;;;;;;;;;;-20.43;63.02;99555.16;4945430;28;20425;-68
2023/01/06 03:37:45;;;;;;;;;;;;;;;-20.44;63.29;99554.34;4944788;28;20465;-68
2023/01/06 03:40:17;;;;;;;;;;;;;;;-20.47;62.93;99561.47;4945873;28;19930;-68
2023/01/06 03:45:43;;;;;;;;;;;;;;;-20.50;63.46;99559.03;4937933;28;19931;-68
2023/01/06 03:48:15;;;;;;;;;;;;;;;-20.47;63.73;99559.69;4927105;29;20588;-68
2023/01/06 03:50:44;;;;;;;;;;;;;;;-20.51;63.47;99580.75;4926047;29;20313;-68
2023/01/06 03:53:15;;;;;;;;;;;;;;;-20.52;63.38;99574.72;4923914;29;19954;-64
2023/01/06 03:55:45;;;;;;;;;;;;;;;-20.59;63.77;99571.59;4942807;28;20464;-68
2023/01/06 03:58:12;;;;;;;;;;;;;;;-20.75;63.99;99587.19;4943764;28;19930;-68
2023/01/06 04:00:38;;;;;;;;;;;;;;;-20.64;64.08;99586.59;4940807;28;19931;-68
2023/01/06 04:03:07;;;;;;;;;;;;;;;-20.58;64.23;99593.25;4925812;29;20448;-68
2023/01/06 04:05:34;;;;;;;;;;;;;;;-20.60;63.34;99602.88;4926028;29;19931;-68
2023/01/06 04:08:01;;;;;;;;;;;;;;;-20.60;63.14;99600.25;4925607;29;19953;-68
2023/01/06 04:10:27;;;;;;;;;;;;;;;-20.60;63.25;99600.25;4942133;28;20394;-68
2023/01/06 04:12:57;;;;;;;;;;;;;;;-20.67;63.77;99607.56;4939705;28;19937;-68
2023/01/06 04:15:28;;;;;;;;;;;;;;;-20.66;63.62;99606.66;4933968;28;20536;-68
2023/01/06 04:17:55;;;;;;;;;;;;;;;-20.68;63.09;99604.13;4925019;29;19935;-68
2023/01/06 04:20:21;;;;;;;;;;;;;;;-20.66;63.83;99611.84;4926609;29;19935;-68
2023/01/06 04:22:49;;;;;;;;;;;;;;;-20.69;63.93;99605.03;4910184;29;19930;-68
2023/01/06 04:25:15;;;;;;;;;;;;;;;-20.73;62.92;99618.28;4926073;28;19938;-68
2023/01/06 04:27:41;;;;;;;;;;;;;;;-20.80;63.59;99620.38;4945497;28;19993;-68
2023/01/06 04:30:09;;;;;;;;;;;;;;;-20.81;63.81;99623.91;4944317;28;20033;-68
2023/01/06 04:32:36;;;;;;;;;;;;;;;-20.78;64.06;99633.28;4943357;28;19931;-68
2023/01/06 04:35:05;;;;;;;;;;;;;;;-20.75;63.96;99633.97;4928916;28;19957;-68
2023/01/06 04:37:32;;;;;;;;;;;;;;;-20.79;63.98;99631.59;4928915;29;20296;-68
2023/01/06 04:39:57;;;;;;;;;;;;;;;-20.80;63.37;99635.97;4924778;29;20021;-68
2023/01/06 04:42:23;;;;;;;;;;;;;;;-20.79;63.45;99647.22;4927680;29;20057;-68
2023/01/06 04:44:49;;;;;;;;;;;;;;;-20.86;63.30;99646.72;4924052;29;19946;-68
2023/01/06 04:47:16;;;;;;;;;;;;;;;-20.94;63.04;99654.91;4934747;28;19931;-69
2023/01/06 04:49:42;;;;;;;;;;;;;;;-20.92;63.36;99653.06;4928338;29;20420;-68
2023/01/06 04:52:07;;;;;;;;;;;;;;;-20.97;63.13;99661.06;4924449;29;19934;-68
2023/01/06 04:54:33;;;;;;;;;;;;;;;-21.01;63.19;99656.09;4925841;29;19952;-68
2023/01/06 04:56:59;;;;;;;;;;;;;;;-21.05;62.96;99657.19;4934299;28;19930;-67
2023/01/06 04:59:25;;;;;;;;;;;;;;;-21.08;63.23;99662.53;4926717;28;20029;-68
2023/01/06 05:01:50;;;;;;;;;;;;;;;-21.09;63.01;99666.06;4926946;29;19931;-68
2023/01/06 05:04:18;;;;;;;;;;;;;;;-21.10;62.91;99665.19;4928011;29;19930;-68
2023/01/06 05:06:43;;;;;;;;;;;;;;;-21.17;63.34;99659.47;4933334;28;19961;-68
2023/01/06 05:09:09;;;;;;;;;;;;;;;-21.19;63.05;99663.06;4942928;28;19934;-68
2023/01/06 05:11:35;;;;;;;;;;;;;;;-21.22;62.98;99671.84;4945395;28;19930;-68
2023/01/06 05:14:01;;;;;;;;;;;;;;;-21.20;62.99;99674.38;4946485;28;19930;-68
2023/01/06 05:16:27;;;;;;;;;;;;;;;-21.20;63.16;99664.81;4940587;28;20025;-68
2023/01/06 05:18:53;;;;;;;;;;;;;;;-21.22;62.93;99663.22;4932085;28;19931;-68
2023/01/06 05:21:21;;;;;;;;;;;;;;;-21.26;63.12;99665.13;4925134;29;19980;-68
2023/01/06 05:23:46;;;;;;;;;;;;;;;-21.27;62.71;99666.06;4924866;29;20037;-68
2023/01/06 05:26:14;;;;;;;;;;;;;;;-21.33;63.20;99668.94;4927749;29;19998;-68
2023/01/06 05:28:40;;;;;;;;;;;;;;;-21.35;62.50;99669.03;4942789;28;20394;-68
2023/01/06 05:31:06;;;;;;;;;;;;;;;-21.34;62.55;99673.28;4931543;29;19935;-68
2023/01/06 05:33:32;;;;;;;;;;;;;;;-21.36;63.67;99679.47;4947862;28;20368;-68
2023/01/06 05:35:58;;;;;;;;;;;;;;;-21.34;63.42;99683.69;4952438;28;19930;-68
2023/01/06 05:38:25;;;;;;;;;;;;;;;-21.36;63.38;99680.31;4947841;28;19984;-68
2023/01/06 05:40:51;;;;;;;;;;;;;;;-21.32;63.34;99696.59;4945517;28;19930;-68
2023/01/06 05:43:16;;;;;;;;;;;;;;;-21.27;63.00;99694.63;4949166;28;19930;-67
2023/01/06 05:45:42;;;;;;;;;;;;;;;-21.25;62.77;99705.78;4957909;28;19934;-69
2023/01/06 05:48:08;;;;;;;;;;;;;;;-21.27;63.11;99705.84;4958792;28;20474;-68
2023/01/06 05:50:34;;;;;;;;;;;;;;;-21.28;62.89;99709.34;4955598;28;19935;-68
2023/01/06 05:52:59;;;;;;;;;;;;;;;-21.23;63.32;99716.09;4962778;28;20305;-69
2023/01/06 05:55:26;;;;;;;;;;;;;;;-21.21;62.91;99715.09;4947189;28;20126;-68
2023/01/06 05:57:52;;;;;;;;;;;;;;;-21.17;63.07;99721.81;4953711;28;19986;-68
2023/01/06 06:00:18;;;;;;;;;;;;;;;-21.16;62.90;99728.69;4958108;28;19930;-64
2023/01/06 06:02:44;;;;;;;;;;;;;;;-21.18;62.95;99730.53;4956229;28;20524;-63
2023/01/06 06:05:10;;;;;;;;;;;;;;;-21.19;62.95;99728.03;4951076;28;19937;-63
2023/01/06 06:07:36;;;;;;;;;;;;;;;-21.17;62.93;99740.00;4954078;28;20028;-64
2023/01/06 06:10:02;;;;;;;;;;;;;;;-21.11;62.52;99738.88;4938374;28;19931;-65
2023/01/06 06:12:30;;;;;;;;;;;;;;;-21.08;62.69;99748.28;4931677;28;20402;-68
2023/01/06 06:14:56;;;;;;;;;;;;;;;-21.07;62.74;99750.81;4951126;28;19930;-67
2023/01/06 06:17:21;;;;;;;;;;;;;;;-21.07;62.22;99753.41;4958979;28;19930;-69
2023/01/06 06:19:49;;;;;;;;;;;;;;;-21.04;62.24;99761.06;4954363;28;20305;-62
2023/01/06 06:22:15;;;;;;;;;;;;;;;-21.08;62.31;99767.31;4957572;28;20024;-63
2023/01/06 06:24:41;;;;;;;;;;;;;;;-21.04;62.72;99761.06;4932776;28;19954;-64
2023/01/06 06:27:06;;;;;;;;;;;;;;;-21.00;62.51;99764.34;4954553;28;20465;-63
2023/01/06 06:29:33;;;;;;;;;;;;;;;-21.02;62.36;99766.19;4953114;28;19931;-63
2023/01/06 06:31:59;;;;;;;;;;;;;;;-20.95;62.37;99770.19;4953432;28;19985;-68
2023/01/06 06:34:26;;;;;;;;;;;;;;;-20.87;62.33;99785.41;4952554;28;19931;-68
2023/01/06 06:36:53;;;;;;;;;;;;;;;-20.86;61.73;99790.53;4957877;28;19934;-64
2023/01/06 06:39:19;;;;;;;;;;;;;;;-20.90;61.54;99793.38;4954944;28;20438;-68
2023/01/06 06:41:44;;;;;;;;;;;;;;;-20.86;61.72;99794.91;4956265;28;20316;-68
2023/01/06 06:44:10;;;;;;;;;;;;;;;-20.81;61.85;99795.50;4955725;28;19930;-63
2023/01/06 06:46:37;;;;;;;;;;;;;;;-20.79;61.50;99800.59;4956092;28;20467;-65
2023/01/06 06:49:03;;;;;;;;;;;;;;;-20.79;61.39;99800.59;4950500;28;19939;-64
2023/01/06 06:51:30;;;;;;;;;;;;;;;-20.77;61.54;99804.78;4953846;28;20359;-64
2023/01/06 06:53:56;;;;;;;;;;;;;;;-20.82;61.61;99806.81;4955051;28;19937;-64
2023/01/06 06:56:22;;;;;;;;;;;;;;;-20.80;62.03;99806.75;4957268;28;19930;-68
2023/01/06 06:58:47;;;;;;;;;;;;;;;-20.78;61.75;99821.31;4951679;28;20307;-68
2023/01/06 07:01:14;;;;;;;;;;;;;;;-20.72;61.57;99814.97;4954995;28;19981;-65
2023/01/06 07:03:41;;;;;;;;;;;;;;;-20.70;61.00;99828.75;4953476;28;19930;-63
2023/01/06 07:06:09;;;;;;;;;;;;;;;-20.65;60.65;99816.38;4948846;28;19969;-64
2023/01/06 07:08:35;;;;;;;;;;;;;;;-20.60;60.98;99829.13;4951294;28;19930;-64
2023/01/06 07:11:01;;;;;;;;;;;;;;;-20.55;60.86;99827.16;4954594;28;19942;-64
2023/01/06 07:13:27;;;;;;;;;;;;;;;-20.50;60.99;99832.16;4953379;28;20421;-63
2023/01/06 07:15:53;;;;;;;;;;;;;;;-20.46;61.25;99829.31;4942564;28;19941;-64
2023/01/06 07:18:19;;;;;;;;;;;;;;;-20.41;60.79;99826.47;4950678;28;19985;-64
2023/01/06 07:20:48;;;;;;;;;;;;;;;-20.45;60.76;99833.59;4952174;28;19949;-64
2023/01/06 07:23:14;;;;;;;;;;;;;;;-20.45;60.38;99838.78;4952540;28;20313;-66
2023/01/06 07:25:40;;;;;;;;;;;;;;;-20.42;60.38;99840.41;4917234;28;19931;-63
2023/01/06 07:28:06;;;;;;;;;;;;;;;-20.38;59.95;99839.31;4956820;28;20380;-64
2023/01/06 07:30:33;;;;;;;;;;;;;;;-20.35;60.23;99844.41;4951112;28;19935;-64
2023/01/06 07:32:59;;;;;;;;;;;;;;;-20.34;60.42;99850.44;4943737;28;20397;-64
2023/01/06 07:35:24;;;;;;;;;;;;;;;-20.28;60.37;99860.56;4944836;28;20014;-64
2023/01/06 07:37:52;;;;;;;;;;;;;;;-20.22;59.66;99859.38;4954040;28;19938;-64
2023/01/06 07:40:17;;;;;;;;;;;;;;;-20.19;59.98;99862.69;4933823;28;20350;-64
2023/01/06 07:42:43;;;;;;;;;;;;;;;-20.14;59.63;99873.69;4926140;29;19930;-64
2023/01/06 07:45:09;;;;;;;;;;;;;;;-20.09;59.67;99877.84;4925124;29;19938;-63
2023/01/06 07:47:35;;;;;;;;;;;;;;;-20.02;59.45;99884.41;4947321;28;19937;-64
2023/01/06 07:50:01;;;;;;;;;;;;;;;-19.95;59.47;99887.56;4956511;28;19934;-64
2023/01/06 07:52:26;;;;;;;;;;;;;;;-19.87;59.63;99888.81;4963698;28;19952;-64
2023/01/06 07:54:58;;;;;;;;;;;;;;;-19.83;59.73;99900.75;4608832;28;10000035;-64
2023/01/06 07:57:23;;;;;;;;;;;;;;;-19.76;60.01;99903.06;4949463;28;19934;-64
2023/01/06 07:59:49;;;;;;;;;;;;;;;-19.70;59.99;99897.53;4949997;28;19974;-64
2023/01/06 08:02:15;;;;;;;;;;;;;;;-19.60;59.50;99906.56;4945829;28;19962;-64
2023/01/06 08:04:40;;;;;;;;;;;;;;;-19.51;59.13;99899.19;4923789;29;19931;-66
2023/01/06 08:07:06;;;;;;;;;;;;;;;-19.60;59.66;99890.09;4941581;28;19934;-64
2023/01/06 08:09:32;;;;;;;;;;;;;;;-19.48;59.58;99902.47;4953836;28;19930;-64
2023/01/06 08:11:59;;;;;;;;;;;;;;;-19.50;59.78;99908.72;4946807;28;19939;-67
2023/01/06 08:14:25;;;;;;;;;;;;;;;-19.50;59.59;99917.34;4935346;28;20479;-68
2023/01/06 08:16:51;;;;;;;;;;;;;;;-19.44;59.87;99918.81;4942870;28;20377;-67
2023/01/06 08:19:16;;;;;;;;;;;;;;;-19.32;59.83;99926.00;4936840;28;19954;-68
2023/01/06 08:21:42;;;;;;;;;;;;;;;-19.17;59.93;99926.13;4930954;28;20346;-68
2023/01/06 08:24:08;;;;;;;;;;;;;;;-19.05;59.15;99912.41;4942111;28;20339;-67
2023/01/06 08:26:34;;;;;;;;;;;;;;;-18.99;59.09;99922.50;4939010;28;20467;-64
2023/01/06 08:29:01;;;;;;;;;;;;;;;-19.05;59.32;99895.94;4940089;28;19931;-64
2023/01/06 08:31:27;;;;;;;;;;;;;;;-18.79;59.29;99919.72;4917826;29;19982;-63
2023/01/06 08:33:53;;;;;;;;;;;;;;;-18.53;59.16;99918.28;4925426;29;19958;-64
2023/01/06 08:36:20;;;;;;;;;;;;;;;-17.65;57.90;99920.22;4941959;28;20012;-64
2023/01/06 08:38:46;;;;;;;;;;;;;;;-16.85;56.43;99926.78;4942750;28;19935;-64
2023/01/06 08:41:12;;;;;;;;;;;;;;;-16.40;54.58;99937.88;4943665;28;19953;-63
2023/01/06 08:43:39;;;;;;;;;;;;;;;-16.06;53.00;99934.03;4944997;28;20437;-64
2023/01/06 08:46:07;;;;;;;;;;;;;;;-15.71;51.89;99936.09;4913787;29;19934;-68
2023/01/06 08:48:34;;;;;;;;;;;;;;;-15.55;51.47;99933.25;4927701;29;20462;-67
2023/01/06 08:51:01;;;;;;;;;;;;;;;-15.19;51.38;99943.97;4928526;29;20022;-67
2023/01/06 08:53:27;;;;;;;;;;;;;;;-14.72;50.45;99946.88;4927165;29;19953;-67
2023/01/06 08:55:52;;;;;;;;;;;;;;;-14.54;49.38;99940.28;4945838;28;20036;-68
2023/01/06 08:58:18;;;;;;;;;;;;;;;-14.50;48.86;99940.06;4943350;28;19937;-68
2023/01/06 09:00:43;;;;;;;;;;;;;;;-14.38;48.03;99952.34;4943939;28;19982;-68
2023/01/06 09:03:11;;;;;;;;;;;;;;;-14.30;48.44;99952.59;4944342;28;19930;-68
2023/01/06 09:05:36;;;;;;;;;;;;;;;-14.28;47.50;99960.41;4941979;28;20037;-68
2023/01/06 09:08:02;;;;;;;;;;;;;;;-14.02;48.12;99961.13;4927327;29;20041;-67
2023/01/06 09:10:28;;;;;;;;;;;;;;;-13.90;47.29;99955.94;4931392;29;19970;-68
2023/01/06 09:12:54;;;;;;;;;;;;;;;-13.76;46.54;99957.53;4926468;29;19931;-68
2023/01/06 09:15:20;;;;;;;;;;;;;;;-13.62;46.71;99967.84;4926545;29;19930;-68
2023/01/06 09:17:45;;;;;;;;;;;;;;;-13.33;46.64;99962.16;4926670;29;20342;-68
2023/01/06 09:20:12;;;;;;;;;;;;;;;-13.23;45.79;99966.75;4921408;28;20029;-69
2023/01/06 09:22:38;;;;;;;;;;;;;;;-13.17;46.34;99961.00;4934489;28;19931;-65
2023/01/06 09:25:04;;;;;;;;;;;;;;;-12.96;45.78;99964.59;4933562;29;19938;-65
2023/01/06 09:27:30;;;;;;;;;;;;;;;-13.17;45.07;99961.00;4926575;29;19937;-64
2023/01/06 09:29:56;;;;;;;;;;;;;;;-13.68;46.08;99937.59;4924953;29;19930;-65
2023/01/06 09:32:21;;;;;;;;;;;;;;;-13.95;46.97;99939.66;4938755;28;20428;-64
2023/01/06 09:34:48;;;;;;;;;;;;;;;-14.34;47.46;99924.06;4937020;28;19978;-64
2023/01/06 09:37:15;;;;;;;;;;;;;;;-14.72;48.16;99904.88;4925694;29;19957;-64
2023/01/06 09:39:41;;;;;;;;;;;;;;;-14.45;48.29;99930.91;4941290;28;19938;-64
2023/01/06 09:42:14;;;;;;;;;;;;;;;-13.61;47.05;99945.03;4938578;29;20322;-64
2023/01/06 09:44:45;;;;;;;;;;;;;;;-12.63;45.60;99951.56;4924712;28;19969;-64
2023/01/06 09:47:14;;;;;;;;;;;;;;;-11.85;43.56;99945.38;4925579;29;20369;-68
2023/01/06 09:49:41;;;;;;;;;;;;;;;-11.62;42.94;99943.47;4926040;29;19935;-68
2023/01/06 09:52:11;;;;;;;;;;;;;;;-11.15;43.41;99943.09;4933246;28;19970;-69
2023/01/06 09:54:51;;;;;;;;;;;;;;;-10.79;42.20;99942.69;4929197;28;19977;-69
2023/01/06 09:57:20;;;;;;;;;;;;;;;-10.67;41.64;99946.09;4931450;28;19987;-69
2023/01/06 09:59:49;;;;;;;;;;;;;;;-10.58;41.42;99945.28;4936484;28;19937;-69
2023/01/06 10:02:18;;;;;;;;;;;;;;;-10.31;40.86;99953.53;4942885;28;20024;-69
2023/01/06 10:04:45;;;;;;;;;;;;;;;-10.23;40.63;99947.56;4931224;29;19939;-69
2023/01/06 10:07:17;;;;;;;;;;;;;;;-10.06;40.47;99952.22;4930877;28;19930;-64
2023/01/06 10:09:49;;;;;;;;;;;;;;;-9.90;40.27;99951.66;4932072;28;20034;-64
2023/01/06 10:12:22;;;;;;;;;;;;;;;-9.99;39.66;99955.13;4942764;28;19930;-64
2023/01/06 10:14:52;;;;;;;;;;;;;;;-9.54;39.96;99949.28;4928078;29;19935;-64
2023/01/06 10:17:27;;;;;;;;;;;;;;;-9.48;38.87;99963.78;4926895;29;19997;-67
2023/01/06 10:20:01;;;;;;;;;;;;;;;-9.36;39.35;99950.38;4938698;28;20478;-69
2023/01/06 10:22:32;;;;;;;;;;;;;;;-9.26;38.18;99938.78;4942615;28;19934;-69
2023/01/06 10:25:04;;;;;;;;;;;;;;;-9.12;38.62;99939.31;4941707;28;19953;-69
2023/01/06 10:27:39;;;;;;;;;;;;;;;-8.97;38.29;99961.75;4939004;28;19931;-69
2023/01/06 10:30:14;;;;;;;;;;;;;;;-8.75;38.03;99958.88;4940296;28;19937;-69
2023/01/06 10:32:40;;;;;;;;;;;;;;;-8.90;37.94;99962.00;4936228;28;19958;-69
2023/01/06 10:35:10;;;;;;;;;;;;;;;-8.98;37.98;99965.38;4923290;29;19930;-69
2023/01/06 10:37:38;;;;;;;;;;;;;;;-9.24;37.89;99970.44;4932513;28;19941;-69
2023/01/06 10:40:13;;;;;;;;;;;;;;;-9.32;38.56;99981.75;4943613;28;20013;-69
2023/01/06 10:42:56;;;;;;;;;;;;;;;-8.97;38.38;99990.06;4937311;28;20028;-69
2023/01/06 10:45:22;;;;;;;;;;;;;;;-8.86;38.12;99987.22;4951629;28;20022;-73
2023/01/06 10:47:48;;;;;;;;;;;;;;;-8.78;38.14;99991.00;4947273;28;19930;-69
2023/01/06 10:50:15;;;;;;;;;;;;;;;-8.66;38.50;99996.97;4938446;28;20090;-69
2023/01/06 10:52:41;;;;;;;;;;;;;;;-8.67;37.17;99987.34;4940983;28;20030;-69
2023/01/06 10:55:17;;;;;;;;;;;;;;;-9.04;37.35;99991.59;4932080;29;20094;-69
2023/01/06 10:57:43;;;;;;;;;;;;;;;-9.19;37.93;99989.41;4933661;29;20407;-69
2023/01/06 11:00:11;;;;;;;;;;;;;;;-9.16;37.67;99983.00;4932232;29;20019;-69
2023/01/06 11:02:40;;;;;;;;;;;;;;;-9.08;37.78;99983.09;4932036;29;20295;-69
2023/01/06 11:05:11;;;;;;;;;;;;;;;-9.06;38.36;99985.63;4932194;29;19934;-69
2023/01/06 11:07:37;;;;;;;;;;;;;;;-9.02;38.33;99984.34;4929633;29;20035;-69
2023/01/06 11:10:17;;;;;;;;;;;;;;;-8.98;38.04;99991.88;4942763;28;20030;-69
2023/01/06 11:12:44;;;;;;;;;;;;;;;-8.97;37.06;99998.03;4930397;29;19937;-69
2023/01/06 11:15:17;;;;;;;;;;;;;;;-9.08;37.81;99988.41;4930050;29;19931;-70
2023/01/06 11:17:44;;;;;;;;;;;;;;;-8.92;37.92;99995.78;4927616;29;20424;-69
2023/01/06 11:20:26;;;;;;;;;;;;;;;-9.13;36.81;99995.94;4928196;29;19970;-69
2023/01/06 11:22:52;;;;;;;;;;;;;;;-9.42;37.79;100004.75;4930221;29;19931;-69
2023/01/06 11:25:28;;;;;;;;;;;;;;;-9.47;37.44;100005.16;4929861;29;19948;-68
2023/01/06 11:28:09;;;;;;;;;;;;;;;-9.99;38.39;100005.38;4929297;29;19935;-69
2023/01/06 11:30:37;;;;;;;;;;;;;;;-10.34;38.67;99996.13;4929434;29;20030;-69
2023/01/06 11:33:04;;;;;;;;;;;;;;;-10.47;38.73;99994.56;4930338;29;19973;-68
2023/01/06 11:35:33;;;;;;;;;;;;;;;-10.78;38.87;99991.94;4926511;29;20073;-69
2023/01/06 11:37:59;;;;;;;;;;;;;;;-11.00;39.58;99992.94;4901645;29;19937;-64
2023/01/06 11:40:28;;;;;;;;;;;;;;;-11.09;39.41;100004.28;4917068;29;20002;-65
2023/01/06 11:42:56;;;;;;;;;;;;;;;-11.42;40.26;100013.09;4923189;29;19993;-65
2023/01/06 11:45:30;;;;;;;;;;;;;;;-11.54;40.92;100014.09;4928510;29;19938;-64
2023/01/06 11:47:57;;;;;;;;;;;;;;;-11.38;40.79;100013.69;4929803;29;19931;-69
2023/01/06 11:50:23;;;;;;;;;;;;;;;-11.16;40.69;100011.88;4600002;28;9999736;-69
2023/01/06 11:52:57;;;;;;;;;;;;;;;-10.83;39.73;100002.91;4939159;28;19990;-69
2023/01/06 11:55:24;;;;;;;;;;;;;;;-10.88;39.42;100005.09;4945403;28;19930;-69
2023/01/06 11:57:56;;;;;;;;;;;;;;;-10.94;39.61;100000.34;4943141;28;19930;-69
2023/01/06 12:00:36;;;;;;;;;;;;;;;-11.03;39.35;100001.09;4944968;28;19930;-69
2023/01/06 12:03:06;;;;;;;;;;;;;;;-11.25;39.97;99995.00;4940192;28;19930;-69
2023/01/06 12:05:35;;;;;;;;;;;;;;;-11.28;40.23;100001.38;4928408;28;20419;-69
2023/01/06 12:08:03;;;;;;;;;;;;;;;-11.20;40.26;100006.00;4583250;28;9999867;-69
2023/01/06 12:10:31;;;;;;;;;;;;;;;-11.26;40.25;100010.00;4937107;28;19931;-69
2023/01/06 12:12:58;;;;;;;;;;;;;;;-11.48;39.83;100010.13;4923881;29;20457;-68
2023/01/06 12:15:27;;;;;;;;;;;;;;;-11.76;40.54;100020.28;4925594;29;19934;-65
2023/01/06 12:17:54;;;;;;;;;;;;;;;-11.97;40.64;100016.63;4921266;29;20288;-64
2023/01/06 12:20:22;;;;;;;;;;;;;;;-12.33;41.44;100030.97;4924068;29;19985;-64
2023/01/06 12:22:49;;;;;;;;;;;;;;;-12.42;42.10;100028.09;4926410;29;19931;-64
2023/01/06 12:25:17;;;;;;;;;;;;;;;-12.42;42.15;100028.09;4934240;29;20322;-64
2023/01/06 12:27:45;;;;;;;;;;;;;;;-12.60;42.28;100038.28;4938510;28;20450;-64
2023/01/06 12:30:16;;;;;;;;;;;;;;;-12.85;43.20;100040.19;4928865;29;19930;-64
2023/01/06 12:32:44;;;;;;;;;;;;;;;-13.21;43.65;100049.88;4926293;29;20037;-64
2023/01/06 12:35:13;;;;;;;;;;;;;;;-13.58;44.41;100043.00;4935450;28;19931;-64
2023/01/06 12:37:41;;;;;;;;;;;;;;;-13.94;45.27;100044.69;4925254;29;20743;-64
2023/01/06 12:40:11;;;;;;;;;;;;;;;-14.48;46.02;100053.75;4930299;28;19937;-68
2023/01/06 12:42:42;;;;;;;;;;;;;;;-15.08;47.16;100050.84;4943994;28;19973;-68